createdAt,value
2024-05-09T00:01:54.096Z,11.81
2024-05-09T00:04:26.275Z,11.85
2024-05-09T00:06:55.778Z,11.89
2024-05-09T00:09:25.437Z,11.89
2024-05-09T00:11:54.971Z,11.95
2024-05-09T00:14:24.591Z,11.87
2024-05-09T00:16:54.140Z,11.65
2024-05-09T00:19:27.610Z,11.76
2024-05-09T00:21:57.142Z,11.92
2024-05-09T00:24:26.655Z,11.93
2024-05-09T00:26:56.186Z,12.30
2024-05-09T00:29:26.197Z,11.92
2024-05-09T00:31:55.883Z,11.75
2024-05-09T00:34:28.278Z,11.61
2024-05-09T00:36:57.932Z,11.85
2024-05-09T00:39:27.440Z,11.64
2024-05-09T00:41:56.948Z,11.36
2024-05-09T00:44:26.566Z,11.49
2024-05-09T00:46:57.489Z,11.42
2024-05-09T00:49:29.723Z,11.55
2024-05-09T00:51:59.653Z,11.64
2024-05-09T00:54:29.606Z,11.39
2024-05-09T00:56:59.233Z,11.85
2024-05-09T00:59:28.863Z,11.46
2024-05-09T01:01:58.586Z,11.62
2024-05-09T01:04:30.792Z,11.32
2024-05-09T01:07:00.316Z,11.68
2024-05-09T01:09:29.863Z,11.44
2024-05-09T01:11:59.469Z,11.44
2024-05-09T01:14:29.157Z,11.30
2024-05-09T01:16:58.977Z,11.31
2024-05-09T01:19:32.279Z,11.33
2024-05-09T01:22:02.073Z,11.12
2024-05-09T01:24:34.207Z,11.46
2024-05-09T01:27:03.753Z,11.34
2024-05-09T01:29:33.412Z,11.20
2024-05-09T01:34:33.921Z,11.23
2024-05-09T01:37:03.426Z,11.15
2024-05-09T01:39:35.645Z,11.18
2024-05-09T01:42:05.249Z,11.23
2024-05-09T01:44:34.785Z,10.99
2024-05-09T01:47:05.324Z,11.38
2024-05-09T01:49:38.572Z,11.16
2024-05-09T01:52:08.312Z,11.42
2024-05-09T01:54:40.434Z,11.23
2024-05-09T01:57:09.966Z,11.53
2024-05-09T01:59:39.635Z,11.49
2024-05-09T02:02:09.291Z,11.67
2024-05-09T02:04:38.993Z,11.35
2024-05-09T02:07:08.576Z,11.40
2024-05-09T02:09:40.722Z,11.30
2024-05-09T02:12:10.529Z,11.51
2024-05-09T02:14:40.289Z,11.44
2024-05-09T02:17:09.830Z,11.27
2024-05-09T02:19:39.464Z,11.32
2024-05-09T02:22:09.033Z,11.51
2024-05-09T02:24:41.130Z,11.60
2024-05-09T02:27:10.659Z,11.48
2024-05-09T02:29:40.166Z,11.30
2024-05-09T02:32:10.011Z,11.42
2024-05-09T02:34:39.586Z,11.53
2024-05-09T02:37:09.087Z,11.37
2024-05-09T02:39:38.572Z,11.38
2024-05-09T02:42:08.351Z,11.42
2024-05-09T02:44:35.296Z,11.42
2024-05-09T02:47:04.847Z,11.37
2024-05-09T02:49:31.873Z,11.31
2024-05-09T02:52:01.400Z,11.17
2024-05-09T02:54:28.340Z,11.13
2024-05-09T02:57:00.445Z,11.17
2024-05-09T02:59:27.634Z,11.13
2024-05-09T03:01:57.322Z,11.06
2024-05-09T03:04:24.361Z,10.97
2024-05-09T03:06:53.867Z,10.98
2024-05-09T03:09:21.520Z,10.98
2024-05-09T03:11:51.138Z,10.95
2024-05-09T03:14:20.878Z,10.93
2024-05-09T03:16:50.429Z,10.90
2024-05-09T03:19:17.584Z,10.86
2024-05-09T03:21:47.150Z,10.82
2024-05-09T03:24:14.074Z,10.79
2024-05-09T03:26:44.238Z,10.76
2024-05-09T03:29:11.184Z,10.66
2024-05-09T03:31:43.865Z,10.66
2024-05-09T03:34:11.598Z,10.67
2024-05-09T03:36:44.011Z,10.64
2024-05-09T03:39:13.572Z,10.60
2024-05-09T03:41:43.272Z,10.52
2024-05-09T03:44:10.240Z,10.55
2024-05-09T03:46:40.450Z,10.55
2024-05-09T03:49:10.122Z,10.56
2024-05-09T03:51:39.663Z,10.49
2024-05-09T03:54:06.605Z,10.32
2024-05-09T03:56:37.876Z,10.36
2024-05-09T03:59:04.890Z,10.42
2024-05-09T04:01:34.618Z,10.12
2024-05-09T04:04:01.577Z,10.39
2024-05-09T04:06:33.707Z,10.49
2024-05-09T04:09:00.648Z,10.50
2024-05-09T04:11:30.192Z,10.50
2024-05-09T04:13:57.204Z,10.53
2024-05-09T04:16:26.899Z,10.61
2024-05-09T04:18:54.061Z,10.63
2024-05-09T04:21:23.667Z,10.50
2024-05-09T04:23:53.224Z,10.17
2024-05-09T04:26:22.790Z,10.04
2024-05-09T04:28:49.780Z,10.43
2024-05-09T04:31:19.388Z,10.22
2024-05-09T04:33:46.586Z,10.17
2024-05-09T04:36:16.251Z,10.28
2024-05-09T04:38:43.284Z,10.32
2024-05-09T04:41:15.467Z,10.44
2024-05-09T04:43:42.434Z,10.77
2024-05-09T04:46:11.966Z,10.91
2024-05-09T04:48:38.923Z,10.86
2024-05-09T04:51:09.967Z,10.88
2024-05-09T04:53:37.171Z,11.29
2024-05-09T04:56:07.431Z,11.24
2024-05-09T04:58:37.191Z,11.29
2024-05-09T05:01:07.291Z,11.46
2024-05-09T05:03:34.362Z,12.08
2024-05-09T05:06:04.211Z,11.85
2024-05-09T05:08:31.422Z,11.96
2024-05-09T05:11:01.077Z,12.31
2024-05-09T05:13:31.143Z,12.34
2024-05-09T05:16:04.865Z,12.96
2024-05-09T05:18:31.886Z,13.35
2024-05-09T05:21:01.678Z,13.82
2024-05-09T05:23:28.650Z,13.25
2024-05-09T05:25:58.228Z,14.72
2024-05-09T05:28:25.215Z,15.31
2024-05-09T05:30:54.710Z,15.69
2024-05-09T05:33:24.374Z,16.20
2024-05-09T05:35:54.131Z,16.95
2024-05-09T05:38:24.868Z,16.54
2024-05-09T05:40:57.028Z,17.89
2024-05-09T05:43:24.000Z,18.66
2024-05-09T05:45:53.516Z,18.66
2024-05-09T05:48:23.248Z,19.42
2024-05-09T05:50:53.275Z,20.28
2024-05-09T05:53:22.900Z,20.73
2024-05-09T05:55:49.864Z,21.36
2024-05-09T05:58:20.269Z,21.98
2024-05-09T06:00:48.058Z,22.01
2024-05-09T06:03:18.267Z,22.38
2024-05-09T06:05:46.550Z,22.81
2024-05-09T06:08:19.022Z,22.72
2024-05-09T06:10:46.234Z,21.51
2024-05-09T06:13:16.089Z,22.29
2024-05-09T06:15:43.825Z,21.11
2024-05-09T06:18:13.870Z,20.77
2024-05-09T06:20:42.239Z,20.16
2024-05-09T06:23:13.375Z,21.45
2024-05-09T06:25:43.956Z,21.59
2024-05-09T06:28:13.919Z,21.15
2024-05-09T06:30:42.594Z,21.49
2024-05-09T06:33:15.688Z,20.28
2024-05-09T06:35:43.951Z,19.89
2024-05-09T06:38:13.750Z,20.58
2024-05-09T06:40:44.478Z,21.87
2024-05-09T06:43:16.888Z,20.29
2024-05-09T06:45:46.715Z,20.42
2024-05-09T06:48:16.532Z,20.33
2024-05-09T06:50:44.372Z,20.10
2024-05-09T06:53:16.672Z,19.78
2024-05-09T06:55:46.262Z,20.00
2024-05-09T06:58:15.820Z,20.06
2024-05-09T07:00:42.812Z,18.90
2024-05-09T07:03:14.932Z,18.25
2024-05-09T07:05:44.431Z,18.59
2024-05-09T07:08:16.045Z,18.67
2024-05-09T07:10:43.192Z,18.71
2024-05-09T07:13:16.195Z,18.16
2024-05-09T07:15:43.276Z,17.88
2024-05-09T07:18:15.366Z,18.21
2024-05-09T07:20:42.915Z,17.22
2024-05-09T07:23:12.935Z,17.10
2024-05-09T07:25:41.125Z,17.15
2024-05-09T07:28:17.082Z,16.83
2024-05-09T07:30:44.241Z,17.28
2024-05-09T07:33:18.764Z,17.13
2024-05-09T07:35:46.491Z,18.01
2024-05-09T07:38:16.255Z,18.52
2024-05-09T07:40:43.354Z,18.07
2024-05-09T07:43:15.737Z,17.63
2024-05-09T07:45:51.242Z,17.47
2024-05-09T07:52:38.372Z,16.28
2024-05-09T07:53:49.065Z,17.07
2024-05-09T07:56:21.841Z,16.84
2024-05-09T07:58:55.927Z,16.11
2024-05-09T08:01:27.172Z,16.41
2024-05-09T08:03:54.659Z,15.40
2024-05-09T08:06:24.380Z,15.80
2024-05-09T08:08:51.390Z,15.46
2024-05-09T08:11:21.042Z,15.55
2024-05-09T08:13:47.931Z,15.23
2024-05-09T08:16:20.256Z,15.52
2024-05-09T08:18:49.067Z,16.02
2024-05-09T08:21:19.233Z,15.91
2024-05-09T08:23:46.185Z,16.34
2024-05-09T08:26:15.679Z,15.42
2024-05-09T08:28:42.577Z,15.56
2024-05-09T08:31:12.530Z,16.89
2024-05-09T08:33:49.080Z,17.23
2024-05-09T08:36:16.108Z,16.64
2024-05-09T08:38:45.689Z,16.96
2024-05-09T08:41:14.377Z,17.20
2024-05-09T08:43:44.243Z,15.94
2024-05-09T08:46:12.961Z,15.65
2024-05-09T08:48:44.007Z,16.35
2024-05-09T08:51:13.936Z,16.57
2024-05-09T08:53:43.444Z,16.84
2024-05-09T08:56:11.522Z,17.76
2024-05-09T08:58:41.706Z,18.12
2024-05-09T09:01:10.139Z,18.03
2024-05-09T09:03:40.309Z,17.68
2024-05-09T09:06:09.340Z,16.89
2024-05-09T09:08:42.114Z,17.76
2024-05-09T09:11:09.091Z,16.99
2024-05-09T09:13:38.642Z,17.33
2024-05-09T09:16:06.682Z,17.61
2024-05-09T09:18:36.342Z,17.14
2024-05-09T09:21:03.550Z,17.07
2024-05-09T09:23:33.107Z,17.19
2024-05-09T09:26:02.653Z,16.62
2024-05-09T09:28:32.225Z,17.35
2024-05-09T09:31:03.000Z,18.12
2024-05-09T09:33:35.356Z,18.64
2024-05-09T09:36:03.032Z,18.86
2024-05-09T09:38:34.091Z,19.39
2024-05-09T09:41:06.982Z,19.73
2024-05-09T09:43:38.793Z,18.97
2024-05-09T09:46:08.707Z,17.54
2024-05-09T09:48:41.461Z,18.42
2024-05-09T09:51:08.924Z,18.58
2024-05-09T09:53:39.964Z,18.73
2024-05-09T09:56:10.346Z,18.53
2024-05-09T09:58:41.408Z,18.86
2024-05-09T10:01:08.549Z,19.37
2024-05-09T10:03:38.471Z,19.95
2024-05-09T10:06:06.851Z,21.06
2024-05-09T10:08:37.413Z,21.19
2024-05-09T10:11:04.695Z,20.66
2024-05-09T10:13:38.087Z,19.46
2024-05-09T10:16:09.595Z,19.32
2024-05-09T10:18:39.907Z,19.57
2024-05-09T10:21:16.525Z,19.62
2024-05-09T10:23:46.750Z,19.88
2024-05-09T10:26:13.680Z,19.93
2024-05-09T10:28:47.464Z,19.22
2024-05-09T10:31:15.872Z,18.89
2024-05-09T10:33:49.685Z,18.72
2024-05-09T10:36:20.091Z,18.57
2024-05-09T10:38:49.670Z,19.56
2024-05-09T10:41:16.857Z,19.28
2024-05-09T10:43:49.537Z,19.10
2024-05-09T10:46:18.052Z,18.85
2024-05-09T10:48:48.447Z,19.03
2024-05-09T10:51:16.747Z,19.14
2024-05-09T10:53:47.251Z,19.69
2024-05-09T10:56:17.609Z,19.08
2024-05-09T10:58:48.110Z,19.23
2024-05-09T11:01:18.803Z,20.42
2024-05-09T11:03:47.566Z,21.30
2024-05-09T11:06:17.153Z,22.14
2024-05-09T11:08:44.591Z,22.37
2024-05-09T11:11:14.174Z,22.61
2024-05-09T11:13:41.186Z,22.03
2024-05-09T11:16:22.068Z,20.16
2024-05-09T11:18:59.494Z,19.88
2024-05-09T11:21:26.755Z,20.14
2024-05-09T11:23:56.389Z,20.74
2024-05-09T11:26:25.138Z,20.47
2024-05-09T11:28:54.767Z,20.51
2024-05-09T11:31:24.569Z,20.11
2024-05-09T11:33:56.726Z,20.72
2024-05-09T11:36:23.747Z,21.69
2024-05-09T11:38:53.495Z,21.35
2024-05-09T11:41:20.487Z,21.40
2024-05-09T11:43:49.983Z,21.14
2024-05-09T11:46:17.154Z,21.91
2024-05-09T11:48:49.636Z,20.90
2024-05-09T11:51:16.621Z,20.04
2024-05-09T11:53:46.135Z,19.65
2024-05-09T11:56:15.360Z,21.01
2024-05-09T11:58:44.911Z,21.99
2024-05-09T12:01:11.934Z,22.53
2024-05-09T12:03:41.582Z,22.01
2024-05-09T12:06:11.256Z,21.31
2024-05-09T12:08:41.095Z,22.20
2024-05-09T12:11:08.148Z,21.10
2024-05-09T12:13:37.726Z,20.59
2024-05-09T12:16:05.347Z,20.72
2024-05-09T12:18:35.352Z,20.63
2024-05-09T12:21:02.473Z,21.86
2024-05-09T12:23:34.580Z,21.29
2024-05-09T12:26:02.903Z,21.78
2024-05-09T12:28:32.539Z,22.69
2024-05-09T12:30:59.591Z,21.85
2024-05-09T12:33:29.615Z,23.03
2024-05-09T12:35:56.649Z,22.48
2024-05-09T12:38:26.155Z,22.69
2024-05-09T12:40:56.120Z,22.84
2024-05-09T12:43:26.004Z,23.63
2024-05-09T12:46:39.000Z,22.77
2024-05-09T12:49:06.073Z,22.98
2024-05-09T12:51:35.717Z,23.70
2024-05-09T12:54:02.665Z,23.86
2024-05-09T12:56:33.438Z,23.79
2024-05-09T12:59:00.389Z,23.92
2024-05-09T13:01:30.201Z,23.00
2024-05-09T13:04:00.140Z,24.40
2024-05-09T13:06:29.840Z,23.23
2024-05-09T13:08:56.812Z,22.84
2024-05-09T13:11:26.377Z,22.11
2024-05-09T13:13:53.300Z,22.92
2024-05-09T13:16:22.975Z,22.65
2024-05-09T13:18:50.233Z,23.50
2024-05-09T13:21:22.651Z,23.32
2024-05-09T13:23:49.604Z,22.58
2024-05-09T13:26:19.093Z,22.22
2024-05-09T13:28:46.038Z,22.62
2024-05-09T13:31:15.592Z,23.07
2024-05-09T13:33:42.680Z,22.78
2024-05-09T13:36:12.351Z,22.71
2024-05-09T13:38:41.932Z,21.81
2024-05-09T13:41:11.573Z,22.40
2024-05-09T13:43:38.896Z,21.72
2024-05-09T13:46:08.617Z,21.90
2024-05-09T13:48:35.783Z,22.63
2024-05-09T13:51:05.421Z,21.66
2024-05-09T13:53:32.367Z,21.41
2024-05-09T13:56:04.507Z,21.05
2024-05-09T13:58:31.668Z,21.37
2024-05-09T14:01:01.266Z,21.56
2024-05-09T14:03:29.936Z,20.95
2024-05-09T14:05:59.678Z,20.98
2024-05-09T14:08:26.659Z,21.65
2024-05-09T14:10:56.310Z,21.56
2024-05-09T14:13:25.968Z,21.23
2024-05-09T14:15:55.708Z,20.69
2024-05-09T14:18:22.902Z,21.14
2024-05-09T14:20:52.533Z,21.39
2024-05-09T14:23:19.437Z,21.96
2024-05-09T14:25:52.050Z,21.97
2024-05-09T14:28:19.992Z,21.42
2024-05-09T14:30:53.232Z,21.16
2024-05-09T14:33:25.441Z,20.98
2024-05-09T14:35:55.427Z,20.51
2024-05-09T14:38:23.187Z,21.09
2024-05-09T14:40:53.292Z,21.63
2024-05-09T14:43:20.461Z,21.06
2024-05-09T14:45:53.309Z,20.76
2024-05-09T14:48:20.476Z,20.49
2024-05-09T14:50:50.360Z,20.59
2024-05-09T14:53:17.468Z,20.87
2024-05-09T14:55:47.311Z,21.09
2024-05-09T14:58:14.344Z,21.03
2024-05-09T15:00:48.506Z,21.33
2024-05-09T15:03:21.605Z,21.54
2024-05-09T15:05:52.479Z,21.01
2024-05-09T15:08:20.234Z,21.75
2024-05-09T15:10:50.686Z,21.82
2024-05-09T15:13:18.216Z,21.17
2024-05-09T15:15:48.207Z,21.47
2024-05-09T15:18:15.537Z,21.17
2024-05-09T15:20:48.285Z,21.61
2024-05-09T15:23:15.403Z,20.82
2024-05-09T15:25:45.069Z,20.54
2024-05-09T15:28:12.145Z,20.36
2024-05-09T15:30:45.478Z,20.56
2024-05-09T15:33:13.906Z,20.90
2024-05-09T15:35:45.675Z,20.67
2024-05-09T15:38:15.875Z,20.67
2024-05-09T15:40:45.388Z,21.20
2024-05-09T15:43:12.560Z,20.35
2024-05-09T15:45:42.524Z,20.85
2024-05-09T15:48:10.321Z,21.13
2024-05-09T15:50:42.141Z,20.42
2024-05-09T15:53:10.977Z,20.73
2024-05-09T15:55:44.112Z,20.05
2024-05-09T15:58:11.361Z,20.39
2024-05-09T16:00:43.331Z,20.30
2024-05-09T16:03:13.347Z,20.63
2024-05-09T16:05:44.314Z,20.83
2024-05-09T16:08:12.266Z,20.34
2024-05-09T16:10:45.992Z,20.43
2024-05-09T16:13:14.590Z,20.46
2024-05-09T16:15:45.970Z,20.46
2024-05-09T16:18:13.360Z,20.76
2024-05-09T16:20:44.862Z,20.81
2024-05-09T16:23:13.593Z,19.96
2024-05-09T16:25:47.800Z,19.90
2024-05-09T16:28:15.260Z,20.18
2024-05-09T16:30:44.930Z,19.52
2024-05-09T16:33:14.735Z,19.73
2024-05-09T16:35:41.692Z,19.69
2024-05-09T16:38:11.380Z,19.12
2024-05-09T16:40:40.749Z,19.91
2024-05-09T16:43:14.223Z,20.26
2024-05-09T16:45:43.792Z,20.19
2024-05-09T16:48:14.158Z,20.17
2024-05-09T16:50:41.411Z,19.29
2024-05-09T16:53:11.158Z,18.86
2024-05-09T16:55:38.424Z,18.85
2024-05-09T16:58:09.210Z,19.24
2024-05-09T17:00:42.630Z,19.82
2024-05-09T17:03:15.890Z,20.13
2024-05-09T17:05:43.935Z,19.70
2024-05-09T17:08:13.797Z,19.25
2024-05-09T17:10:40.888Z,19.56
2024-05-09T17:13:10.535Z,19.58
2024-05-09T17:15:42.735Z,19.11
2024-05-09T17:18:12.374Z,19.31
2024-05-09T17:20:39.393Z,19.19
2024-05-09T17:23:13.323Z,19.35
2024-05-09T17:25:41.619Z,19.38
2024-05-09T17:28:11.711Z,18.97
2024-05-09T17:30:44.277Z,19.47
2024-05-09T17:33:12.627Z,19.57
2024-05-09T17:35:45.534Z,19.40
2024-05-09T17:38:12.674Z,19.56
2024-05-09T17:40:42.246Z,19.58
2024-05-09T17:43:10.485Z,19.92
2024-05-09T17:45:41.597Z,19.96
2024-05-09T17:48:12.394Z,19.67
2024-05-09T17:50:42.531Z,20.24
2024-05-09T17:53:10.163Z,19.91
2024-05-09T17:55:40.720Z,20.04
2024-05-09T17:58:08.046Z,20.29
2024-05-09T18:00:40.762Z,20.31
2024-05-09T18:03:13.044Z,20.26
2024-05-09T18:05:44.691Z,19.80
2024-05-09T18:08:12.468Z,19.63
2024-05-09T18:10:43.023Z,19.70
2024-05-09T18:13:11.082Z,19.54
2024-05-09T18:15:41.613Z,19.60
2024-05-09T18:18:12.363Z,19.31
2024-05-09T18:20:45.433Z,19.37
2024-05-09T18:23:16.201Z,19.45
2024-05-09T18:25:48.086Z,19.56
2024-05-09T18:28:16.571Z,19.54
2024-05-09T18:30:47.514Z,19.79
2024-05-09T18:33:17.473Z,19.39
2024-05-09T18:35:48.715Z,19.36
2024-05-09T18:38:16.222Z,18.98
2024-05-09T18:40:48.957Z,18.97
2024-05-09T18:43:17.308Z,18.87
2024-05-09T18:45:47.853Z,19.04
2024-05-09T18:48:18.440Z,18.84
2024-05-09T18:50:48.476Z,19.13
2024-05-09T18:53:16.235Z,19.23
2024-05-09T18:55:46.091Z,19.28
2024-05-09T18:58:13.589Z,18.98
2024-05-09T19:00:46.011Z,18.98
2024-05-09T19:03:18.294Z,18.94
2024-05-09T19:05:48.830Z,18.86
2024-05-09T19:08:16.024Z,18.77
2024-05-09T19:10:46.068Z,18.97
2024-05-09T19:13:14.376Z,19.04
2024-05-09T19:15:44.994Z,18.81
2024-05-09T19:18:12.727Z,18.21
2024-05-09T19:20:45.844Z,18.15
2024-05-09T19:23:12.933Z,17.98
2024-05-09T19:25:42.587Z,18.11
2024-05-09T19:28:09.580Z,17.60
2024-05-09T19:30:41.914Z,17.83
2024-05-09T19:33:11.371Z,17.96
2024-05-09T19:35:44.700Z,17.87
2024-05-09T19:38:11.943Z,17.79
2024-05-09T19:40:41.723Z,17.74
2024-05-09T19:43:11.665Z,17.16
2024-05-09T19:45:38.883Z,17.13
2024-05-09T19:48:09.490Z,17.18
2024-05-09T19:50:41.927Z,17.29
2024-05-09T19:53:16.919Z,17.33
2024-05-09T19:55:43.947Z,17.27
2024-05-09T19:58:13.730Z,16.99
2024-05-09T20:00:43.023Z,17.03
2024-05-09T20:03:14.821Z,16.92
2024-05-09T20:05:43.821Z,17.02
2024-05-09T20:08:16.216Z,16.87
2024-05-09T20:10:43.383Z,16.89
2024-05-09T20:13:13.020Z,17.01
2024-05-09T20:15:40.288Z,17.05
2024-05-09T20:18:10.109Z,17.13
2024-05-09T20:20:41.284Z,17.21
2024-05-09T20:23:16.226Z,17.20
2024-05-09T20:25:43.371Z,17.11
2024-05-09T20:28:12.942Z,16.70
2024-05-09T20:30:40.142Z,16.73
2024-05-09T20:33:10.391Z,16.53
2024-05-09T20:35:37.743Z,16.40
2024-05-09T20:38:07.667Z,16.45
2024-05-09T20:40:39.193Z,16.68
2024-05-09T20:43:10.802Z,16.40
2024-05-09T20:45:38.406Z,16.08
2024-05-09T20:48:09.710Z,16.03
2024-05-09T20:50:40.608Z,16.06
2024-05-09T20:53:13.722Z,16.23
2024-05-09T20:55:45.007Z,16.13
2024-05-09T20:58:15.165Z,16.14
2024-05-09T21:00:44.842Z,16.25
2024-05-09T21:03:17.016Z,16.33
2024-05-09T21:05:45.973Z,16.55
2024-05-09T21:08:15.809Z,16.43
2024-05-09T21:10:45.524Z,16.59
2024-05-09T21:13:15.312Z,16.60
2024-05-09T21:15:42.382Z,16.66
2024-05-09T21:18:11.947Z,16.56
2024-05-09T21:20:38.943Z,16.73
2024-05-09T21:23:08.487Z,16.78
2024-05-09T21:25:35.398Z,16.83
2024-05-09T21:28:08.142Z,16.77
2024-05-09T21:30:41.460Z,16.25
2024-05-09T21:33:14.266Z,16.10
2024-05-09T21:35:42.189Z,15.88
2024-05-09T21:38:13.324Z,15.60
2024-05-09T21:40:40.321Z,15.43
2024-05-09T21:43:12.596Z,15.30
2024-05-09T21:45:39.686Z,15.48
2024-05-09T21:48:10.378Z,15.60
2024-05-09T21:50:40.954Z,15.75
2024-05-09T21:53:12.862Z,16.05
2024-05-09T21:55:40.410Z,16.04
2024-05-09T21:58:12.646Z,15.80
2024-05-09T22:00:42.465Z,15.56
2024-05-09T22:03:12.718Z,15.70
2024-05-09T22:05:43.379Z,15.90
2024-05-09T22:08:13.263Z,16.00
2024-05-09T22:10:40.478Z,15.81
2024-05-09T22:13:12.846Z,15.27
2024-05-09T22:15:40.742Z,15.52
2024-05-09T22:18:11.773Z,15.39
2024-05-09T22:20:44.279Z,15.22
2024-05-09T22:23:15.208Z,15.08
2024-05-09T22:25:42.322Z,15.03
2024-05-09T22:28:16.084Z,14.75
2024-05-09T22:30:45.668Z,15.03
2024-05-09T22:33:15.769Z,15.02
2024-05-09T22:35:43.004Z,15.09
2024-05-09T22:38:12.518Z,15.07
2024-05-09T22:40:47.133Z,14.68
2024-05-09T22:43:24.630Z,14.64
2024-05-09T22:45:52.634Z,14.70
2024-05-09T22:48:23.391Z,14.71
2024-05-09T22:50:50.634Z,14.66
2024-05-09T22:53:20.516Z,14.19
2024-05-09T22:55:47.449Z,14.04
2024-05-09T22:58:17.063Z,14.26
2024-05-09T23:00:46.800Z,14.22
2024-05-09T23:03:18.539Z,14.24
2024-05-09T23:05:45.574Z,14.09
2024-05-09T23:08:15.087Z,14.20
2024-05-09T23:10:42.043Z,14.07
2024-05-09T23:13:11.607Z,14.07
2024-05-09T23:15:38.931Z,14.12
2024-05-09T23:18:11.436Z,14.11
2024-05-09T23:20:41.007Z,14.13
2024-05-09T23:23:08.501Z,14.08
2024-05-09T23:25:39.090Z,14.01
2024-05-09T23:28:06.573Z,14.01
2024-05-09T23:30:39.419Z,13.88
2024-05-09T23:33:11.687Z,13.96
2024-05-09T23:35:41.450Z,13.56
2024-05-09T23:38:08.416Z,13.59
2024-05-09T23:40:40.510Z,13.71
2024-05-09T23:43:09.293Z,13.78
2024-05-09T23:45:39.233Z,13.75
2024-05-09T23:48:07.792Z,13.67
2024-05-09T23:50:40.924Z,13.66
2024-05-09T23:53:09.455Z,13.70
2024-05-09T23:55:39.877Z,13.64
2024-05-09T23:58:07.415Z,13.54
